« 惜愁-最後の日イ 石垣空港 2013/3/6 wed | トップページ | 初夢 富山空港 2014/3/8 sat »

2014/03/07

惜愁-最後の日ロ 石垣空港 2013/3/6 wed

露西亜のロ

このブログ公開日の3月7日は、新石垣空港供用一周年。大型機が就航できるため、貨物取扱量が増えて・・ と、言ったことはよく聞くが、どんな変化があったのか、再度訪れたいですね。

石垣のイからつづき

20130306_roig_26ja8526

JTA071 RJTT-ROIG JA8526 B737-4Q3

この時間は、もう羽田や関西から直行便がやってくる。

ROIG 060100Z 03005KT 9999 FEW040 SCT070 21/13 Q1023

20130306_roig_27ja356k

ANA1763 ROAH-ROIG JA356K B737-5L9

20130306_roig_28ja8597

関空からのJTA83がVORアプローチでハイステーション。

20130306_roig_29ja8935

RAC742 ROYN-ROIG JA8935 DHC-8-103

20130306_roig_30ja8597

探検隊員搭乗機は、ぱいーぐる・ピカリャー~ジェット

20130306_roig_31ja8597

JTA083 RJBB-ROIG JA8597 B737-4Q3

20130306_roig_32ja8526

JTA604 ROIG-ROAH JA8526 B737-4Q3

20130306_roig_33ja8526

滑走路脇の撮影ポイントは、こんな人出。

20130306_roig_34ja8597

20130306_roig_35ja8597

そろって駐機中です。

ROIG 060200Z 09007KT 060V130 9999 FEW040 SCT080 22/13 Q1023

20130306_roig_36ja8935

20130306_roig_37ja8935

20130306_roig_38ja8935

RAC741 ROIG-ROYN JA8935 DHC-8-103

20130306_roig_39ja007p

20130306_roig_40ja007p

JA007P C206H

20130306_roig_41ja356k

20130306_roig_42ja356k

20130306_roig_43ja356k

ANA1766 ROIG-ROAH JA356K B737-5L9

20130306_roig_44ja8597

20130306_roig_45ja8597

20130306_roig_46ja8597

20130306_roig_47ja8597

JTA606 ROIG-ROAH JA8597 B737-4Q3

20130306_roig_48ja8974

RAC833 ROMY-ROIG JA8974 DHC-8-103

20130306_roig_49ja18an

20130306_roig_50ja18an

ANA1747 RJBB-ROIG JA18AN B737-781

ROIG 060300Z 07009KT 9999 FEW040 SCT050 BKN080 22/13 Q1022

惜愁-最後の日ハ につづく・・・

|

« 惜愁-最後の日イ 石垣空港 2013/3/6 wed | トップページ | 初夢 富山空港 2014/3/8 sat »

石垣空港」カテゴリの記事

コメント

コメントを書く



(ウェブ上には掲載しません)


コメントは記事投稿者が公開するまで表示されません。



トラックバック


この記事へのトラックバック一覧です: 惜愁-最後の日ロ 石垣空港 2013/3/6 wed:

« 惜愁-最後の日イ 石垣空港 2013/3/6 wed | トップページ | 初夢 富山空港 2014/3/8 sat »